Accueil
METAR-TAF:

METAR-TAF

Aéroports :

Aéroport de Florence-Peretola

Florence, Italie

latitude: 43-48N, longitude: 011-12E, altitude: 40 m

Observation

Le bulletin a été fait il y a 23 minutes, à 21:50 UTC
Vent 4 kt de sud/sud-est, variant entre sud-est et sud
Température 25°C
Humidité 61%
Pression 1015 hPa
Visibilité 10 km ou plus
pas de nuages en-dessous de 1500 mètres et pas de cumulonimbus.

METAR: LIRQ 212150Z 16004KT 130V190 CAVOK 25/17 Q1015

Heure: 00:13 (22:13 UTC)

Prévision

Le bulletin a été fait il y a 5 heures et 13 minutes, à 17:00 UTC
Prévision valable du 21 à 18 UTC au 22 à 18 UTC
Vent 5 kt de direction variable
Visibilité 10 km ou plus
pas de nuages en-dessous de 1500 mètres et pas de cumulonimbus.
Evoluant progressivement
du 22 à 08 UTC au 22 à 10 UTC
Vent 10 kt de nord-est

TAF: LIRQ 211700Z 2118/2218 VRB05KT CAVOK BECMG 2208/2210 04010KT

Observations et prévisions météorologiques de plus de 4000 aéroports (messages METAR et TAF).

Les stations disponibles sont représentées par des disques jaunes et rouges sur la carte.

Passer la souris dessus pour voir le nom de la station.

Cliquer dessus pour voir les observations et prévisions météorologiques.

Pour changer de carte: cliquez sur les boutons verts avec une croix noire pour zoomer, sur le bouton vert avec un tiret pour effectuer un zoom arrière, ou sur les flèches vertes pour les cartes adjacentes.


METAR-TAF: